createdAt,value
2022-12-26T05:48:39.565Z,2.97
2022-12-26T05:51:06.329Z,3.20
2022-12-26T05:53:33.747Z,2.50
2022-12-26T05:56:05.634Z,3.13
2022-12-26T05:58:32.711Z,3.20
2022-12-26T06:01:19.644Z,2.80
2022-12-26T06:03:48.534Z,3.30
2022-12-26T06:06:16.223Z,3.00
2022-12-26T06:08:43.574Z,1.97
2022-12-26T06:11:14.746Z,2.10
2022-12-26T06:13:41.946Z,2.37
2022-12-26T06:16:11.542Z,2.10
2022-12-26T06:18:39.053Z,2.03
2022-12-26T06:21:07.560Z,3.00
2022-12-26T06:23:35.621Z,2.40
2022-12-26T06:26:02.896Z,2.10
2022-12-26T06:28:30.022Z,2.27
2022-12-26T06:31:03.290Z,2.30
2022-12-26T06:33:31.235Z,2.23
2022-12-26T06:36:15.920Z,5.00
2022-12-26T06:38:43.357Z,2.77
2022-12-26T06:41:13.672Z,2.20
2022-12-26T06:43:40.794Z,2.57
2022-12-26T06:46:09.978Z,2.20
2022-12-26T06:48:39.948Z,4.33
2022-12-26T06:51:13.317Z,2.73
2022-12-26T06:53:40.285Z,2.53
2022-12-26T06:56:30.754Z,2.70
2022-12-26T06:59:03.100Z,2.30
2022-12-26T07:01:31.462Z,2.07
2022-12-26T07:03:59.992Z,2.50
2022-12-26T07:06:37.634Z,2.73
2022-12-26T07:09:13.009Z,2.30
2022-12-26T07:11:41.810Z,2.87
2022-12-26T07:14:09.388Z,2.40
2022-12-26T07:16:37.346Z,2.50
2022-12-26T07:19:04.436Z,2.43
2022-12-26T07:21:36.437Z,4.83
2022-12-26T07:24:07.963Z,2.40
2022-12-26T07:26:34.696Z,2.47
2022-12-26T07:29:01.394Z,2.63
2022-12-26T07:31:28.375Z,2.17
2022-12-26T07:33:56.283Z,2.37
2022-12-26T07:36:25.114Z,2.33
2022-12-26T07:38:52.101Z,2.10
2022-12-26T07:41:37.813Z,2.37
2022-12-26T07:44:06.126Z,2.00
2022-12-26T07:46:33.579Z,2.13
2022-12-26T07:49:00.410Z,1.90
2022-12-26T07:51:27.586Z,2.17
2022-12-26T07:53:54.635Z,2.57
2022-12-26T07:56:21.448Z,2.30
2022-12-26T07:58:52.276Z,2.30
2022-12-26T08:01:19.433Z,2.13
2022-12-26T08:03:48.879Z,2.80
2022-12-26T08:06:16.345Z,2.23
2022-12-26T08:08:50.274Z,2.23
2022-12-26T08:11:20.971Z,2.07
2022-12-26T08:13:47.705Z,1.90
2022-12-26T08:16:15.334Z,2.03
2022-12-26T08:18:42.841Z,1.90
2022-12-26T08:21:10.596Z,1.80
2022-12-26T08:23:37.422Z,2.47
2022-12-26T08:26:06.238Z,1.80
2022-12-26T08:28:32.981Z,2.23
2022-12-26T08:31:00.197Z,2.27
2022-12-26T08:33:27.688Z,2.10
2022-12-26T08:35:54.419Z,2.07
2022-12-26T08:38:21.158Z,1.97
2022-12-26T08:40:56.056Z,1.97
2022-12-26T08:44:16.399Z,1.97
2022-12-26T08:46:12.673Z,1.70
2022-12-26T08:48:40.745Z,2.07
2022-12-26T08:51:12.601Z,1.70
2022-12-26T08:53:39.392Z,1.63
2022-12-26T08:56:08.183Z,1.80
2022-12-26T08:58:35.324Z,2.10
2022-12-26T09:01:13.851Z,1.60
2022-12-26T09:03:41.789Z,2.03
2022-12-26T09:06:09.925Z,2.43
2022-12-26T09:08:37.778Z,3.40
2022-12-26T09:11:06.366Z,3.17
2022-12-26T09:13:34.341Z,2.60
2022-12-26T09:16:10.506Z,3.70
2022-12-26T09:18:37.334Z,3.73
2022-12-26T09:21:06.258Z,2.53
2022-12-26T09:23:34.375Z,2.50
2022-12-26T09:26:05.475Z,3.07
2022-12-26T09:28:32.551Z,3.50
2022-12-26T09:31:02.621Z,2.80
2022-12-26T09:33:30.744Z,2.00
2022-12-26T09:36:03.392Z,2.00
2022-12-26T09:38:31.360Z,2.00
2022-12-26T09:41:36.669Z,1.80
2022-12-26T09:44:21.619Z,1.53
2022-12-26T09:47:19.196Z,1.90
2022-12-26T09:49:55.442Z,1.50
2022-12-26T09:52:40.116Z,1.73
2022-12-26T09:55:43.800Z,1.70
2022-12-26T09:58:29.215Z,1.70
2022-12-26T10:01:26.973Z,1.77
2022-12-26T10:03:58.235Z,2.67
2022-12-26T10:06:38.520Z,2.03
2022-12-26T10:09:34.103Z,1.93
2022-12-26T10:12:03.783Z,4.77
2022-12-26T10:15:06.399Z,3.77
2022-12-26T10:17:51.939Z,1.60
2022-12-26T10:20:46.484Z,1.43
2022-12-26T10:23:26.687Z,1.43
2022-12-26T10:26:08.796Z,1.60
2022-12-26T10:28:52.379Z,1.73
2022-12-26T10:31:37.023Z,1.60
2022-12-26T10:34:41.449Z,1.60
2022-12-26T10:37:16.947Z,2.03
2022-12-26T10:39:51.547Z,1.70
2022-12-26T10:42:42.365Z,1.63
2022-12-26T10:45:21.264Z,1.40
2022-12-26T10:47:50.138Z,1.40
2022-12-26T10:50:29.059Z,1.83
2022-12-26T10:52:58.001Z,2.17
2022-12-26T10:55:34.760Z,1.60
2022-12-26T10:58:28.084Z,1.70
2022-12-26T11:00:54.825Z,1.50
2022-12-26T11:03:21.932Z,1.80
2022-12-26T11:06:10.629Z,1.40
2022-12-26T11:08:43.773Z,1.83
2022-12-26T11:11:21.025Z,2.27
2022-12-26T11:14:00.975Z,2.43
2022-12-26T11:16:40.136Z,2.17
2022-12-26T11:19:06.853Z,1.60
2022-12-26T11:21:34.188Z,1.80
2022-12-26T11:24:10.405Z,1.30
2022-12-26T11:26:38.561Z,1.97
2022-12-26T11:29:08.061Z,2.53
2022-12-26T11:31:34.998Z,2.13
2022-12-26T11:34:07.604Z,1.83
2022-12-26T11:36:37.683Z,1.93
2022-12-26T11:39:24.528Z,1.63
2022-12-26T11:41:52.241Z,1.87
2022-12-26T11:44:29.846Z,1.77
2022-12-26T11:47:07.207Z,1.97
2022-12-26T11:49:54.889Z,2.47
2022-12-26T11:52:51.884Z,2.83
2022-12-26T11:55:39.070Z,2.70
2022-12-26T11:58:09.166Z,2.90
2022-12-26T12:00:39.005Z,2.50
2022-12-26T12:03:16.820Z,3.60
2022-12-26T12:05:50.182Z,2.90
2022-12-26T12:08:35.694Z,2.87
2022-12-26T12:11:17.066Z,2.87
2022-12-26T12:13:50.003Z,3.10
2022-12-26T12:16:31.742Z,3.77
2022-12-26T12:19:07.691Z,3.47
2022-12-26T12:21:52.864Z,4.67
2022-12-26T12:24:22.501Z,3.73
2022-12-26T12:27:04.917Z,3.07
2022-12-26T12:29:44.406Z,3.13
2022-12-26T12:32:34.499Z,4.80
2022-12-26T12:35:24.267Z,3.00
2022-12-26T12:38:21.322Z,3.20
2022-12-26T12:41:16.984Z,2.60
2022-12-26T12:44:19.570Z,2.80
2022-12-26T12:47:17.625Z,2.83
2022-12-26T12:50:03.129Z,2.70
2022-12-26T12:52:32.886Z,3.27
2022-12-26T12:55:11.331Z,3.07
2022-12-26T12:57:47.598Z,4.80
2022-12-26T13:00:16.581Z,4.83
2022-12-26T13:02:56.882Z,7.17
2022-12-26T13:05:44.368Z,4.90
2022-12-26T13:08:22.541Z,4.13
2022-12-26T13:11:15.025Z,3.73
2022-12-26T13:13:54.929Z,3.10
2022-12-26T13:16:28.676Z,3.70
2022-12-26T13:19:02.954Z,3.73
2022-12-26T13:21:34.708Z,3.20
2022-12-26T13:24:24.220Z,4.50
2022-12-26T13:27:24.213Z,4.63
2022-12-26T13:29:52.388Z,4.13
2022-12-26T13:32:33.238Z,3.90
2022-12-26T13:35:02.878Z,3.33
2022-12-26T13:37:32.536Z,4.43
2022-12-26T13:40:06.188Z,3.40
2022-12-26T13:43:38.439Z,3.10
2022-12-26T13:46:05.243Z,2.53
2022-12-26T13:48:32.314Z,4.27
2022-12-26T13:51:04.419Z,3.77
2022-12-26T13:53:31.178Z,4.90
2022-12-26T13:56:00.787Z,3.93
2022-12-26T13:58:43.143Z,4.37
2022-12-26T14:01:41.420Z,3.57
2022-12-26T14:04:57.661Z,3.53
2022-12-26T14:08:06.565Z,3.27
2022-12-26T14:14:06.649Z,2.60
2022-12-26T14:17:34.181Z,1.90
2022-12-26T14:20:48.366Z,2.90
2022-12-26T14:24:17.312Z,2.23
2022-12-26T14:27:37.028Z,2.10
2022-12-26T14:30:43.401Z,2.20
2022-12-26T14:33:49.106Z,2.40
2022-12-26T14:37:09.257Z,2.43
2022-12-26T14:40:19.992Z,1.90
2022-12-26T14:43:22.530Z,2.40
2022-12-26T14:45:54.535Z,2.30
2022-12-26T14:48:33.237Z,2.07
2022-12-26T14:51:58.944Z,1.57
2022-12-26T14:54:52.661Z,1.90
2022-12-26T15:00:56.533Z,2.40
2022-12-26T15:04:03.142Z,1.93
2022-12-26T15:06:32.644Z,2.10
2022-12-26T15:10:10.717Z,3.37
2022-12-26T15:13:38.242Z,2.80
2022-12-26T15:17:00.614Z,1.83
2022-12-26T15:20:00.500Z,1.70
2022-12-26T15:26:41.689Z,2.00
2022-12-26T15:30:14.389Z,2.17
2022-12-26T15:33:29.348Z,2.20
2022-12-26T15:36:36.652Z,3.67
2022-12-26T15:43:20.537Z,1.70
2022-12-26T15:46:34.032Z,1.80
2022-12-26T15:50:07.739Z,1.70
2022-12-26T15:53:35.436Z,1.50
2022-12-26T15:57:10.628Z,1.37
2022-12-26T16:00:06.659Z,1.20
2022-12-26T16:02:53.908Z,1.23
2022-12-26T16:05:56.353Z,1.17
2022-12-26T16:09:01.192Z,2.60
2022-12-26T16:15:27.924Z,1.30
2022-12-26T16:18:14.795Z,1.20
2022-12-26T16:21:32.065Z,1.20
2022-12-26T16:26:48.959Z,1.60
2022-12-26T16:29:46.947Z,1.20
2022-12-26T16:32:43.280Z,1.40
2022-12-26T16:35:47.836Z,1.50
2022-12-26T16:38:32.692Z,1.37
2022-12-26T16:41:00.792Z,1.50
2022-12-26T16:43:44.377Z,3.00
2022-12-26T16:46:18.291Z,2.70
2022-12-26T16:48:50.758Z,3.80
2022-12-26T16:51:50.766Z,2.40
2022-12-26T16:54:44.844Z,1.10
2022-12-26T16:57:23.998Z,1.10
2022-12-26T17:00:21.737Z,1.40
2022-12-26T17:03:02.958Z,1.20
2022-12-26T17:06:05.830Z,1.20
2022-12-26T17:08:44.264Z,0.80
2022-12-26T17:11:14.860Z,1.00
2022-12-26T17:14:02.601Z,0.93
2022-12-26T17:16:31.804Z,1.03
2022-12-26T17:19:38.340Z,0.80
2022-12-26T17:22:27.338Z,1.17
2022-12-26T17:25:30.165Z,1.10
2022-12-26T17:28:44.446Z,0.80
2022-12-26T17:31:43.655Z,1.00
2022-12-26T17:34:24.694Z,1.00
2022-12-26T17:37:19.093Z,1.00
2022-12-26T17:40:09.455Z,1.30
2022-12-26T17:43:07.004Z,0.80
2022-12-26T17:45:59.901Z,1.13
2022-12-26T18:28:57.693Z,1.00
2022-12-26T18:31:26.562Z,1.70
2022-12-26T18:33:54.227Z,0.87
2022-12-26T18:36:33.934Z,0.90
2022-12-26T18:39:01.109Z,0.93
2022-12-26T18:41:27.832Z,1.33
2022-12-26T18:43:54.810Z,1.73
2022-12-26T18:46:26.011Z,1.10
2022-12-26T18:48:54.277Z,1.07
2022-12-26T18:51:21.416Z,1.33
2022-12-26T18:53:48.374Z,0.97
2022-12-26T18:56:20.103Z,1.10
2022-12-26T18:58:52.425Z,0.90
2022-12-26T19:01:22.513Z,1.50
2022-12-26T19:03:49.641Z,2.00
2022-12-26T19:06:21.555Z,1.30
2022-12-26T19:08:48.292Z,2.70
2022-12-26T19:11:15.205Z,1.07
2022-12-26T19:13:42.137Z,1.00
2022-12-26T19:16:09.684Z,4.20
2022-12-26T19:18:36.447Z,4.10
2022-12-26T19:21:03.662Z,2.67
2022-12-26T19:23:30.500Z,4.50
2022-12-26T19:25:57.225Z,3.83
2022-12-26T19:28:24.064Z,4.07
2022-12-26T19:30:50.799Z,4.67
2022-12-26T19:33:17.509Z,4.20
2022-12-26T19:35:44.241Z,2.13
2022-12-26T19:38:13.569Z,3.83
2022-12-26T19:40:40.474Z,3.77
2022-12-26T19:43:07.184Z,6.80
2022-12-26T19:45:33.953Z,1.70
2022-12-26T19:48:00.727Z,2.30
2022-12-26T19:50:27.432Z,1.80
2022-12-26T19:52:54.224Z,4.47
2022-12-26T19:55:20.985Z,2.40
2022-12-26T19:57:47.701Z,3.40
2022-12-26T20:00:14.526Z,5.40
2022-12-26T20:02:41.605Z,5.97
2022-12-26T20:05:09.462Z,2.93
2022-12-26T20:07:36.294Z,3.87
2022-12-26T20:10:03.386Z,3.20
2022-12-26T20:12:30.180Z,1.20
2022-12-26T20:14:56.900Z,1.77
2022-12-26T20:17:23.681Z,1.03
2022-12-26T20:19:52.143Z,1.10
2022-12-26T20:22:18.931Z,1.20
2022-12-26T20:24:47.152Z,1.17
2022-12-26T20:27:14.027Z,1.10
2022-12-26T20:29:40.757Z,0.90
2022-12-26T20:32:07.569Z,0.90
2022-12-26T20:34:34.344Z,0.80
2022-12-26T20:37:01.063Z,1.00
2022-12-26T20:39:27.887Z,1.07
2022-12-26T20:41:54.717Z,1.03
2022-12-26T20:44:21.671Z,1.00
2022-12-26T20:46:48.374Z,0.90
2022-12-26T20:49:15.179Z,1.00
2022-12-26T20:51:43.988Z,0.80
2022-12-26T20:54:12.641Z,1.20
2022-12-26T20:56:40.420Z,1.33
2022-12-26T20:59:07.586Z,1.17
2022-12-26T21:01:35.305Z,1.27
2022-12-26T21:04:02.221Z,1.40
2022-12-26T21:06:31.952Z,1.30
2022-12-26T21:08:58.722Z,1.10
2022-12-26T21:11:34.572Z,1.20
2022-12-26T21:14:04.399Z,1.10
2022-12-26T21:16:38.565Z,0.90
2022-12-26T21:19:12.287Z,0.93
2022-12-26T21:21:44.011Z,2.30
2022-12-26T21:24:29.596Z,1.23
2022-12-26T21:26:57.472Z,1.93
2022-12-26T21:29:32.999Z,0.90
2022-12-26T21:32:00.877Z,1.00
2022-12-26T21:34:30.845Z,1.10
2022-12-26T21:37:16.679Z,1.20
2022-12-26T21:39:44.033Z,1.30
2022-12-26T21:42:11.223Z,2.30
2022-12-26T21:44:38.149Z,1.70
2022-12-26T21:47:07.969Z,1.87
2022-12-26T21:49:35.187Z,1.73
2022-12-26T21:52:02.142Z,2.50
2022-12-26T21:54:49.347Z,3.30
2022-12-26T21:57:17.304Z,1.00
2022-12-26T21:59:56.651Z,1.00
2022-12-26T22:03:02.577Z,1.30
2022-12-26T22:05:34.124Z,1.50
2022-12-26T22:08:02.017Z,1.17
2022-12-26T22:10:49.936Z,1.07
2022-12-26T22:13:17.513Z,0.80
2022-12-26T22:16:05.070Z,0.83
2022-12-26T22:18:41.284Z,0.80
2022-12-26T22:21:19.934Z,0.90
2022-12-26T22:23:50.318Z,1.10
2022-12-26T22:26:18.345Z,1.00
2022-12-26T22:28:45.389Z,0.90
2022-12-26T22:31:24.111Z,0.97
2022-12-26T22:33:55.789Z,0.90
2022-12-26T22:36:22.692Z,0.93
2022-12-26T22:38:49.500Z,0.80
2022-12-26T22:41:16.292Z,0.80
2022-12-26T22:43:45.869Z,0.87
2022-12-26T22:46:13.565Z,1.00
2022-12-26T22:48:40.599Z,0.90
2022-12-26T22:51:09.188Z,1.10
2022-12-26T22:53:35.968Z,1.00
2022-12-26T22:56:05.706Z,1.30
2022-12-26T22:58:33.265Z,1.20
2022-12-26T23:01:00.770Z,0.80
2022-12-26T23:03:28.543Z,0.73
2022-12-26T23:05:56.168Z,0.70
2022-12-26T23:08:26.575Z,0.73
2022-12-26T23:10:55.731Z,0.80
2022-12-26T23:13:23.397Z,0.80
2022-12-26T23:15:50.132Z,0.90
2022-12-26T23:18:48.417Z,1.10
2022-12-26T23:21:44.950Z,1.03
2022-12-26T23:24:24.286Z,1.30
2022-12-26T23:27:16.957Z,1.53
2022-12-26T23:30:02.736Z,1.10
2022-12-26T23:32:29.498Z,0.90
2022-12-26T23:34:56.280Z,1.00
2022-12-26T23:37:23.015Z,0.90
2022-12-26T23:39:49.710Z,0.87
2022-12-26T23:42:16.441Z,0.70
2022-12-26T23:44:43.174Z,0.93
2022-12-26T23:47:09.936Z,0.90
2022-12-26T23:49:36.678Z,0.90
2022-12-26T23:52:03.695Z,0.80
2022-12-26T23:54:30.598Z,0.90
2022-12-26T23:56:57.356Z,0.97
2022-12-26T23:59:24.392Z,0.80
